Time;durP1;ratioP1;P1;durP2;ratioP2;P2;SDS_P1;SDS_P2;PMS_P1;PMS_P2;Temp;Humidity;BMP_temperature;BMP_pressure;BME280_temperature;BME280_humidity;BME280_pressure;Samples;Min_cycle;Max_cycle;Signal;HPM_P1;HPM_P2
2021/03/23 00:01:55;;;;;;;11.75;9.88;;;8.00;85.20;;;;;;4992962;28;20034;-64
2021/03/23 00:04:21;;;;;;;14.55;11.07;;;8.10;85.40;;;;;;4992572;28;20109;-64
2021/03/23 00:06:46;;;;;;;13.88;10.70;;;8.10;85.50;;;;;;4992199;28;20057;-64
2021/03/23 00:09:12;;;;;;;12.88;10.23;;;8.00;85.50;;;;;;4992915;28;20093;-65
2021/03/23 00:11:42;;;;;;;11.32;9.82;;;8.10;85.80;;;;;;4992539;28;20038;-65
2021/03/23 00:14:10;;;;;;;11.82;10.20;;;8.10;85.70;;;;;;4992446;28;20065;-65
2021/03/23 00:16:40;;;;;;;10.70;9.63;;;8.10;85.70;;;;;;4992650;28;20027;-65
2021/03/23 00:19:06;;;;;;;10.95;9.57;;;8.10;85.70;;;;;;4992931;28;20046;-65
2021/03/23 00:21:32;;;;;;;12.77;9.73;;;8.10;85.80;;;;;;4991758;28;20088;-65
2021/03/23 00:23:58;;;;;;;15.45;10.68;;;8.10;85.80;;;;;;4993453;28;20030;-65
2021/03/23 00:26:25;;;;;;;11.82;9.63;;;8.10;85.90;;;;;;4996521;28;20022;-65
2021/03/23 00:28:53;;;;;;;12.45;9.68;;;8.10;86.00;;;;;;4995712;28;20045;-65
2021/03/23 00:31:21;;;;;;;14.18;9.02;;;8.10;85.90;;;;;;4996267;28;20486;-65
2021/03/23 00:33:47;;;;;;;16.30;10.48;;;8.10;85.90;;;;;;4995290;28;20041;-64
2021/03/23 00:36:20;;;;;;;14.85;10.93;;;8.00;85.90;;;;;;4995723;28;20026;-65
2021/03/23 00:38:47;;;;;;;13.00;9.60;;;8.00;86.00;;;;;;4996376;28;20081;-65
2021/03/23 00:41:12;;;;;;;13.88;10.25;;;8.00;85.70;;;;;;4995852;28;20494;-65
2021/03/23 00:43:40;;;;;;;12.75;9.52;;;8.00;85.70;;;;;;4996362;28;20027;-65
2021/03/23 00:46:06;;;;;;;12.15;10.13;;;8.00;85.90;;;;;;4996299;28;20454;-64
2021/03/23 00:48:31;;;;;;;12.15;9.98;;;8.00;86.10;;;;;;4993968;28;20426;-65
2021/03/23 00:50:57;;;;;;;12.75;9.93;;;8.00;86.10;;;;;;5011183;28;20030;-65
2021/03/23 00:53:23;;;;;;;10.98;9.18;;;8.00;85.80;;;;;;4995911;28;20493;-65
2021/03/23 00:55:49;;;;;;;13.98;9.80;;;8.00;85.50;;;;;;4995467;28;20022;-65
2021/03/23 00:58:15;;;;;;;11.23;9.50;;;8.00;85.40;;;;;;4995459;28;20038;-64
2021/03/23 01:00:40;;;;;;;11.30;9.00;;;8.00;85.30;;;;;;4996050;28;20114;-65
2021/03/23 01:03:06;;;;;;;10.13;9.13;;;8.00;85.20;;;;;;4995177;28;20549;-65
2021/03/23 01:05:34;;;;;;;10.07;8.98;;;7.90;85.30;;;;;;4994518;28;20026;-64
2021/03/23 01:08:00;;;;;;;11.40;8.88;;;7.90;85.30;;;;;;4995801;28;20026;-65
2021/03/23 01:10:28;;;;;;;14.05;9.43;;;7.90;85.20;;;;;;4994688;28;20029;-65
2021/03/23 01:12:54;;;;;;;12.63;9.00;;;7.90;85.30;;;;;;4995794;28;20489;-65
2021/03/23 01:15:24;;;;;;;10.73;8.73;;;7.90;85.30;;;;;;4995455;28;20030;-65
2021/03/23 01:17:49;;;;;;;10.80;9.18;;;7.90;85.30;;;;;;4995005;28;20022;-65
2021/03/23 01:20:17;;;;;;;12.52;9.18;;;7.90;85.10;;;;;;4994067;28;20037;-65
2021/03/23 01:22:43;;;;;;;12.00;8.88;;;7.90;85.10;;;;;;4995551;28;20035;-64
2021/03/23 01:25:10;;;;;;;12.63;9.00;;;7.90;85.00;;;;;;4994955;28;20029;-65
2021/03/23 01:27:35;;;;;;;9.90;8.73;;;7.90;85.00;;;;;;4993867;28;20034;-65
2021/03/23 01:30:01;;;;;;;12.65;8.80;;;7.90;85.10;;;;;;4995560;28;20038;-65
2021/03/23 01:32:27;;;;;;;10.27;8.80;;;7.90;84.70;;;;;;4994547;28;20027;-64
2021/03/23 01:34:52;;;;;;;11.73;8.68;;;7.90;84.80;;;;;;4994368;28;20387;-65
2021/03/23 01:37:18;;;;;;;10.50;9.07;;;7.80;85.10;;;;;;4994478;28;20023;-64
2021/03/23 01:39:44;;;;;;;11.45;8.75;;;7.80;85.00;;;;;;4995353;28;20037;-64
2021/03/23 01:42:12;;;;;;;12.43;8.95;;;7.80;84.90;;;;;;5010381;28;20037;-65
2021/03/23 01:44:43;;;;;;;10.90;8.60;;;7.80;84.80;;;;;;5009534;28;20781;-64
2021/03/23 01:47:09;;;;;;;10.80;8.30;;;7.80;84.80;;;;;;4995149;28;20026;-64
2021/03/23 01:49:42;;;;;;;9.82;8.75;;;7.80;84.60;;;;;;4994672;28;20102;-65
2021/03/23 01:52:16;;;;;;;11.90;8.63;;;7.80;84.90;;;;;;4994523;28;20025;-63
2021/03/23 01:54:55;;;;;;;10.77;8.73;;;7.80;85.00;;;;;;4995084;28;20081;-65
2021/03/23 01:57:21;;;;;;;13.60;9.00;;;7.80;85.10;;;;;;4994598;28;20026;-65
2021/03/23 01:59:52;;;;;;;10.75;8.38;;;7.90;85.20;;;;;;4994364;28;20029;-66
2021/03/23 02:02:21;;;;;;;11.77;8.88;;;7.90;85.10;;;;;;4994378;28;20038;-64
2021/03/23 02:04:47;;;;;;;12.48;9.02;;;7.90;85.30;;;;;;4994769;28;20023;-66
2021/03/23 02:07:13;;;;;;;10.02;8.73;;;7.90;85.20;;;;;;4994013;28;20026;-65
2021/03/23 02:09:39;;;;;;;15.50;10.25;;;7.90;85.20;;;;;;4977017;28;20088;-65
2021/03/23 02:12:17;;;;;;;12.52;8.98;;;7.90;85.20;;;;;;4994922;28;20022;-65
2021/03/23 02:14:47;;;;;;;13.52;8.95;;;7.90;85.50;;;;;;4993920;28;20488;-65
2021/03/23 02:17:23;;;;;;;11.98;9.27;;;7.90;85.30;;;;;;4994559;28;20038;-66
2021/03/23 02:20:14;;;;;;;11.15;8.52;;;7.90;85.40;;;;;;4994128;28;20034;-65
2021/03/23 02:22:45;;;;;;;13.65;9.02;;;7.90;85.30;;;;;;4982332;28;20038;-66
2021/03/23 02:25:21;;;;;;;12.15;8.20;;;7.90;85.10;;;;;;4994400;28;20041;-65
2021/03/23 02:27:46;;;;;;;14.45;9.23;;;7.90;85.10;;;;;;5008791;28;20416;-65
2021/03/23 02:30:19;;;;;;;11.55;8.35;;;7.90;84.70;;;;;;4994409;28;20026;-65
2021/03/23 02:32:45;;;;;;;14.30;8.98;;;7.90;84.90;;;;;;4994386;28;20053;-64
2021/03/23 02:35:11;;;;;;;10.30;9.18;;;7.90;85.10;;;;;;4993974;28;20105;-65
2021/03/23 02:37:36;;;;;;;12.27;9.43;;;7.90;85.10;;;;;;4993888;28;20034;-65
2021/03/23 02:40:04;;;;;;;13.75;10.70;;;7.90;85.10;;;;;;4994143;28;20022;-64
2021/03/23 02:42:30;;;;;;;16.30;11.57;;;7.90;85.10;;;;;;4993091;28;20663;-65
2021/03/23 02:44:55;;;;;;;14.65;11.75;;;7.90;84.90;;;;;;4992815;28;20026;-64
2021/03/23 02:47:21;;;;;;;14.73;11.70;;;7.90;85.10;;;;;;4993649;28;20026;-63
2021/03/23 02:49:46;;;;;;;15.93;11.50;;;7.90;85.10;;;;;;4992125;28;20053;-64
2021/03/23 02:52:13;;;;;;;15.43;12.00;;;7.90;85.30;;;;;;4993908;28;20467;-64
2021/03/23 02:54:39;;;;;;;16.25;12.82;;;7.90;85.40;;;;;;4993144;28;20117;-64
2021/03/23 02:57:06;;;;;;;18.90;13.15;;;7.90;85.40;;;;;;4993767;28;20030;-65
2021/03/23 02:59:31;;;;;;;16.77;13.65;;;7.90;85.20;;;;;;4993541;28;20102;-64
2021/03/23 03:01:57;;;;;;;18.00;13.55;;;7.90;85.20;;;;;;4993071;28;20520;-64
2021/03/23 03:04:22;;;;;;;18.55;14.13;;;7.90;85.30;;;;;;4993471;28;20037;-66
2021/03/23 03:06:48;;;;;;;20.33;13.77;;;7.90;85.30;;;;;;4993746;28;20057;-65
2021/03/23 03:09:13;;;;;;;19.90;14.40;;;7.90;85.40;;;;;;4992969;28;20026;-65
2021/03/23 03:11:39;;;;;;;16.50;13.93;;;7.90;85.60;;;;;;4993615;28;20026;-64
2021/03/23 03:14:05;;;;;;;16.85;13.88;;;7.80;85.60;;;;;;4993636;28;20027;-64
2021/03/23 03:16:30;;;;;;;18.50;15.25;;;7.80;85.80;;;;;;4992681;28;20022;-64
2021/03/23 03:18:56;;;;;;;19.50;15.18;;;7.80;85.80;;;;;;4993625;28;20026;-63
2021/03/23 03:21:22;;;;;;;20.42;16.38;;;7.80;85.80;;;;;;4991988;28;20026;-65
2021/03/23 03:23:47;;;;;;;18.27;15.45;;;7.80;85.70;;;;;;5007863;28;20026;-65
2021/03/23 03:26:14;;;;;;;19.88;15.27;;;7.90;86.00;;;;;;4992139;28;20093;-64
2021/03/23 03:28:49;;;;;;;22.30;17.63;;;7.90;86.20;;;;;;4993521;28;20382;-65
2021/03/23 03:31:15;;;;;;;26.25;17.75;;;7.90;86.30;;;;;;4992704;28;20029;-65
2021/03/23 03:33:41;;;;;;;23.33;18.08;;;7.90;86.20;;;;;;5008384;28;20109;-66
2021/03/23 03:36:07;;;;;;;25.35;18.52;;;7.90;86.20;;;;;;4993502;28;20141;-66
2021/03/23 03:38:32;;;;;;;22.13;17.70;;;7.90;86.10;;;;;;4991005;28;20028;-65
2021/03/23 03:40:58;;;;;;;20.80;17.52;;;7.90;86.00;;;;;;4993223;28;20050;-64
2021/03/23 03:43:27;;;;;;;24.80;18.90;;;7.90;85.90;;;;;;4992950;28;20031;-64
2021/03/23 03:45:53;;;;;;;24.92;19.38;;;7.80;86.10;;;;;;4991448;28;20027;-65
2021/03/23 03:48:18;;;;;;;25.33;18.98;;;7.90;86.20;;;;;;4992940;28;20109;-65
2021/03/23 03:50:44;;;;;;;28.27;19.95;;;7.80;86.30;;;;;;4993309;28;20109;-64
2021/03/23 03:53:12;;;;;;;26.45;20.75;;;7.80;86.40;;;;;;4992581;28;20026;-66
2021/03/23 03:55:40;;;;;;;27.83;21.45;;;7.80;86.60;;;;;;5007981;28;20019;-65
2021/03/23 03:58:05;;;;;;;28.13;20.40;;;7.70;86.50;;;;;;4992606;28;20516;-66
2021/03/23 04:00:33;;;;;;;24.38;19.80;;;7.70;86.50;;;;;;4996895;28;20046;-64
2021/03/23 04:03:01;;;;;;;26.52;20.42;;;7.70;86.60;;;;;;4997041;28;20039;-64
2021/03/23 04:05:46;;;;;;;25.63;20.50;;;7.70;86.60;;;;;;4996252;28;20023;-64
2021/03/23 04:08:14;;;;;;;28.52;20.45;;;7.60;86.40;;;;;;4996863;28;20038;-65
2021/03/23 04:10:41;;;;;;;28.48;20.65;;;7.60;86.40;;;;;;4996976;28;20106;-65
2021/03/23 04:13:07;;;;;;;26.00;20.48;;;7.60;86.60;;;;;;4995082;28;20096;-65
2021/03/23 04:15:38;;;;;;;27.55;21.98;;;7.60;86.70;;;;;;4996579;28;20018;-65
2021/03/23 04:18:06;;;;;;;34.97;22.67;;;7.60;86.70;;;;;;4996937;28;20030;-65
2021/03/23 04:20:32;;;;;;;26.85;20.33;;;7.60;86.70;;;;;;4995891;28;20023;-65
2021/03/23 04:22:58;;;;;;;26.67;20.58;;;7.60;86.80;;;;;;4997032;28;20038;-64
2021/03/23 04:25:26;;;;;;;28.85;22.42;;;7.60;86.90;;;;;;4996636;28;20026;-65
2021/03/23 04:27:52;;;;;;;24.92;20.85;;;7.60;87.00;;;;;;4995998;28;20058;-65
2021/03/23 04:30:19;;;;;;;28.33;22.20;;;7.50;87.10;;;;;;4996374;28;20030;-64
2021/03/23 04:32:46;;;;;;;32.80;21.55;;;7.50;87.30;;;;;;4996561;28;20053;-65
2021/03/23 04:35:40;;;;;;;26.05;21.25;;;7.50;87.40;;;;;;4995986;28;20105;-63
2021/03/23 04:38:06;;;;;;;26.70;21.75;;;7.40;87.50;;;;;;5011618;28;20026;-66
2021/03/23 04:40:32;;;;;;;27.75;21.85;;;7.40;87.60;;;;;;4995571;28;20482;-64
2021/03/23 04:42:58;;;;;;;30.20;23.63;;;7.30;87.50;;;;;;4996416;28;20030;-63
2021/03/23 04:45:23;;;;;;;26.15;21.00;;;7.30;87.70;;;;;;4996146;28;20019;-63
2021/03/23 04:47:49;;;;;;;26.55;22.10;;;7.30;87.80;;;;;;4995558;28;20053;-64
2021/03/23 04:50:16;;;;;;;28.13;22.08;;;7.30;88.10;;;;;;4995816;28;20061;-65
2021/03/23 04:52:42;;;;;;;29.75;22.23;;;7.20;88.10;;;;;;4996493;28;20023;-66
2021/03/23 04:55:08;;;;;;;28.20;21.42;;;7.20;88.20;;;;;;4994150;28;20019;-64
2021/03/23 04:57:33;;;;;;;31.23;21.90;;;7.30;88.10;;;;;;4994341;28;20172;-66
2021/03/23 04:59:59;;;;;;;29.20;23.20;;;7.30;88.20;;;;;;4996196;28;20486;-64
2021/03/23 05:02:24;;;;;;;31.63;22.70;;;7.20;88.40;;;;;;4995027;28;20034;-64
2021/03/23 05:04:50;;;;;;;32.90;22.02;;;7.30;88.60;;;;;;4995912;28;20026;-64
2021/03/23 05:07:15;;;;;;;31.08;22.38;;;7.20;88.60;;;;;;4995568;28;20030;-64
2021/03/23 05:09:41;;;;;;;26.70;21.85;;;7.30;88.60;;;;;;4994229;28;20105;-65
2021/03/23 05:12:07;;;;;;;28.17;21.27;;;7.30;88.60;;;;;;4995728;28;20053;-65
2021/03/23 05:14:33;;;;;;;26.98;21.98;;;7.20;88.50;;;;;;4995576;28;20920;-64
2021/03/23 05:16:58;;;;;;;29.40;22.65;;;7.20;88.50;;;;;;4995342;28;20022;-63
2021/03/23 05:19:24;;;;;;;32.85;22.10;;;7.20;89.20;;;;;;4995416;28;20061;-63
2021/03/23 05:21:49;;;;;;;27.40;22.17;;;7.20;88.60;;;;;;4995567;28;20097;-64
2021/03/23 05:24:15;;;;;;;27.77;21.63;;;7.10;88.60;;;;;;4994658;28;20448;-63
2021/03/23 05:26:41;;;;;;;27.25;21.55;;;7.10;88.80;;;;;;4995505;28;20395;-64
2021/03/23 05:29:06;;;;;;;31.88;23.27;;;7.10;88.80;;;;;;4995591;28;20098;-65
2021/03/23 05:31:33;;;;;;;27.42;21.75;;;7.10;88.90;;;;;;4994535;28;20061;-64
2021/03/23 05:33:59;;;;;;;31.73;22.55;;;7.10;88.90;;;;;;4994250;28;20029;-64
2021/03/23 05:36:25;;;;;;;27.67;22.52;;;7.10;89.00;;;;;;4994368;28;20030;-64
2021/03/23 05:38:50;;;;;;;27.80;21.02;;;7.00;89.20;;;;;;4995251;28;20490;-65
2021/03/23 05:41:34;;;;;;;29.25;23.10;;;7.10;89.30;;;;;;5010201;28;20118;-66
2021/03/23 05:44:46;;;;;;;31.48;22.02;;;7.00;89.40;;;;;;4994725;28;20036;-65
2021/03/23 05:47:27;;;;;;;32.78;22.42;;;7.00;89.60;;;;;;4995248;28;20032;-65
2021/03/23 05:50:12;;;;;;;29.17;22.02;;;7.00;89.60;;;;;;4995141;28;20387;-64
2021/03/23 05:52:43;;;;;;;32.13;22.05;;;6.90;89.80;;;;;;4994353;28;20038;-64
2021/03/23 05:55:31;;;;;;;28.20;21.77;;;6.90;89.90;;;;;;4995281;28;20065;-65
2021/03/23 05:58:00;;;;;;;28.80;21.58;;;6.80;90.00;;;;;;4994380;28;20638;-64
2021/03/23 06:00:30;;;;;;;36.83;23.80;;;6.80;90.10;;;;;;4994658;28;20355;-64
2021/03/23 06:03:19;;;;;;;31.08;21.95;;;6.70;90.10;;;;;;4995054;28;20058;-64
2021/03/23 06:05:53;;;;;;;31.88;21.70;;;6.60;90.20;;;;;;4994238;28;20019;-64
2021/03/23 06:08:25;;;;;;;29.70;21.77;;;6.60;90.30;;;;;;4994559;28;20035;-66
2021/03/23 06:11:06;;;;;;;31.13;22.85;;;6.50;90.40;;;;;;4994970;28;20057;-63
2021/03/23 06:13:38;;;;;;;33.33;23.17;;;6.50;90.50;;;;;;4993993;28;20033;-63
2021/03/23 06:16:48;;;;;;;29.55;21.08;;;6.40;90.70;;;;;;4993771;28;20340;-66
2021/03/23 06:19:37;;;;;;;27.60;22.38;;;6.30;90.80;;;;;;4993319;28;20041;-63
2021/03/23 06:22:23;;;;;;;30.85;22.75;;;6.30;90.90;;;;;;4985489;28;20490;-64
2021/03/23 06:25:00;;;;;;;29.10;22.75;;;6.30;91.00;;;;;;4986292;28;20096;-64
2021/03/23 06:27:41;;;;;;;30.63;22.40;;;6.30;91.00;;;;;;4991780;28;20033;-65
2021/03/23 06:30:28;;;;;;;29.77;21.88;;;6.30;91.10;;;;;;4992906;28;20133;-65
2021/03/23 06:32:55;;;;;;;33.47;21.80;;;6.30;91.10;;;;;;4993559;28;20040;-64
2021/03/23 06:35:31;;;;;;;32.65;23.48;;;6.40;91.10;;;;;;4993951;28;20445;-65
2021/03/23 06:37:57;;;;;;;33.30;23.05;;;6.40;91.10;;;;;;4994201;28;20018;-65
2021/03/23 06:40:26;;;;;;;35.20;23.75;;;6.50;91.10;;;;;;4993378;28;20174;-65
2021/03/23 06:42:55;;;;;;;30.23;21.92;;;6.50;91.10;;;;;;4993832;28;20033;-64
2021/03/23 06:45:34;;;;;;;29.90;22.25;;;6.60;91.10;;;;;;4993493;28;20482;-64
2021/03/23 06:48:29;;;;;;;33.42;22.77;;;6.60;91.00;;;;;;4993295;28;20026;-65
2021/03/23 06:51:10;;;;;;;31.55;22.88;;;6.70;90.90;;;;;;4993931;28;20054;-64
2021/03/23 06:53:37;;;;;;;30.73;22.13;;;6.70;90.90;;;;;;4992460;28;20035;-64
2021/03/23 06:56:24;;;;;;;35.30;24.10;;;6.70;90.90;;;;;;4992879;28;20285;-64
2021/03/23 06:59:08;;;;;;;32.08;23.40;;;6.70;90.90;;;;;;4985306;28;20398;-65
2021/03/23 07:01:42;;;;;;;30.13;21.77;;;6.70;90.90;;;;;;5007973;28;20104;-65
2021/03/23 07:04:43;;;;;;;31.45;22.20;;;6.80;91.00;;;;;;4993239;28;20104;-64
2021/03/23 07:07:14;;;;;;;32.38;21.70;;;6.80;91.10;;;;;;4933694;29;20028;-65
2021/03/23 07:09:58;;;;;;;33.20;22.65;;;6.80;91.00;;;;;;4982672;28;20047;-64
2021/03/23 07:12:45;;;;;;;28.20;21.92;;;6.80;91.10;;;;;;4993426;28;20033;-63
2021/03/23 07:15:25;;;;;;;36.58;25.42;;;6.90;91.20;;;;;;4992875;28;20018;-64
2021/03/23 07:17:56;;;;;;;35.00;23.90;;;7.00;91.20;;;;;;5011367;28;20141;-63
2021/03/23 07:20:28;;;;;;;36.80;23.33;;;7.10;91.10;;;;;;5014652;28;20454;-65
2021/03/23 07:22:54;;;;;;;45.22;24.73;;;7.30;91.00;;;;;;4992558;28;20030;-65
2021/03/23 07:25:41;;;;;;;43.38;24.02;;;7.40;91.00;;;;;;5007820;28;20352;-66
2021/03/23 07:28:32;;;;;;;45.63;27.15;;;7.60;90.80;;;;;;4973852;28;20022;-66
2021/03/23 07:31:23;;;;;;;44.15;28.45;;;7.80;90.70;;;;;;4973223;28;20019;-67
2021/03/23 07:34:26;;;;;;;46.10;29.10;;;7.90;90.50;;;;;;4973615;28;20054;-66
2021/03/23 07:37:16;;;;;;;44.13;26.58;;;8.10;90.60;;;;;;4981606;28;20431;-65
2021/03/23 07:39:51;;;;;;;41.63;26.35;;;8.20;90.30;;;;;;4993059;28;20447;-65
2021/03/23 07:42:37;;;;;;;42.08;25.75;;;8.30;90.20;;;;;;4992797;28;20039;-65
2021/03/23 07:45:26;;;;;;;45.05;28.35;;;8.40;90.00;;;;;;4991788;28;20034;-64
2021/03/23 07:48:11;;;;;;;41.20;27.50;;;8.50;89.50;;;;;;4991777;28;20076;-64
2021/03/23 07:50:43;;;;;;;51.28;32.15;;;8.60;89.40;;;;;;4992230;28;20026;-64
2021/03/23 07:53:40;;;;;;;50.72;33.38;;;8.70;89.20;;;;;;4992926;28;20546;-64
2021/03/23 07:56:39;;;;;;;51.80;32.28;;;8.70;89.00;;;;;;4993172;28;20026;-64
2021/03/23 07:59:32;;;;;;;52.85;34.90;;;8.80;89.80;;;;;;4991953;28;20565;-64
2021/03/23 08:02:23;;;;;;;61.50;37.00;;;8.80;89.00;;;;;;4992569;28;20034;-64
2021/03/23 08:04:58;;;;;;;57.17;38.58;;;8.80;88.80;;;;;;4992607;28;20529;-64
2021/03/23 08:07:30;;;;;;;54.33;35.53;;;8.80;88.70;;;;;;4992719;28;20030;-65
2021/03/23 08:10:21;;;;;;;54.05;36.63;;;8.80;89.10;;;;;;4993034;28;20018;-65
2021/03/23 08:12:53;;;;;;;54.23;38.90;;;8.90;89.20;;;;;;4991349;28;20046;-65
2021/03/23 08:15:37;;;;;;;53.92;36.90;;;9.10;89.00;;;;;;4992292;28;20030;-66
2021/03/23 08:18:34;;;;;;;63.22;40.85;;;9.30;88.30;;;;;;4992402;28;20108;-67
2021/03/23 08:21:18;;;;;;;62.92;39.30;;;9.50;87.70;;;;;;4993012;28;20067;-67
2021/03/23 08:24:05;;;;;;;62.08;40.20;;;9.70;86.80;;;;;;5007865;28;20030;-67
2021/03/23 08:27:01;;;;;;;61.45;41.35;;;9.70;86.30;;;;;;4991886;28;20022;-66
2021/03/23 08:30:08;;;;;;;61.28;38.50;;;9.70;86.10;;;;;;4991137;28;20481;-66
2021/03/23 08:32:41;;;;;;;56.78;38.47;;;9.60;86.20;;;;;;4928428;29;20059;-65
2021/03/23 08:35:36;;;;;;;56.13;38.65;;;9.70;86.20;;;;;;4984723;28;20438;-67
2021/03/23 08:38:07;;;;;;;57.63;37.78;;;9.60;85.80;;;;;;4991722;28;20041;-66
2021/03/23 08:40:59;;;;;;;54.80;37.50;;;9.50;86.50;;;;;;4991093;28;20355;-69
2021/03/23 08:43:36;;;;;;;55.78;37.42;;;9.50;86.60;;;;;;4990524;28;20053;-70
2021/03/23 08:46:06;;;;;;;50.78;35.17;;;9.40;86.40;;;;;;4995156;28;20025;-67
2021/03/23 08:48:37;;;;;;;55.95;36.65;;;9.40;86.90;;;;;;4993138;28;20486;-66
2021/03/23 08:51:06;;;;;;;58.53;35.77;;;9.40;87.00;;;;;;4993154;28;20090;-67
2021/03/23 08:53:32;;;;;;;56.80;38.20;;;9.40;86.90;;;;;;5005589;28;20463;-67
2021/03/23 08:55:59;;;;;;;57.17;36.90;;;9.40;87.00;;;;;;5002829;28;20113;-67
2021/03/23 08:58:48;;;;;;;67.40;41.42;;;9.30;87.90;;;;;;4995158;28;20124;-67
2021/03/23 09:01:26;;;;;;;60.90;39.58;;;9.30;87.90;;;;;;4995177;28;20026;-68
2021/03/23 09:04:03;;;;;;;58.88;39.65;;;9.10;88.00;;;;;;4995384;28;20482;-69
2021/03/23 09:06:45;;;;;;;57.20;39.55;;;9.00;88.30;;;;;;4995387;28;20030;-67
2021/03/23 09:09:19;;;;;;;60.20;37.08;;;8.90;88.80;;;;;;4994941;28;20033;-67
2021/03/23 09:12:07;;;;;;;57.30;38.70;;;8.90;89.30;;;;;;4994445;28;20065;-68
2021/03/23 09:15:15;;;;;;;60.85;38.35;;;8.80;89.40;;;;;;4994793;28;20030;-67
2021/03/23 09:18:02;;;;;;;66.32;39.88;;;8.70;89.90;;;;;;4995086;28;20098;-69
2021/03/23 09:20:33;;;;;;;63.08;37.55;;;8.70;90.20;;;;;;4995112;28;20034;-66
2021/03/23 09:23:17;;;;;;;59.05;36.75;;;8.70;90.40;;;;;;4994419;28;20043;-70
2021/03/23 09:25:45;;;;;;;59.70;36.78;;;8.70;90.50;;;;;;4994842;28;20495;-67
2021/03/23 09:28:33;;;;;;;60.58;37.67;;;8.70;90.70;;;;;;4995171;28;20030;-70
2021/03/23 09:31:14;;;;;;;57.78;36.60;;;8.70;90.60;;;;;;4990984;28;20490;-67
2021/03/23 09:33:53;;;;;;;63.28;35.45;;;8.70;90.70;;;;;;4993794;28;20101;-70
2021/03/23 09:36:48;;;;;;;62.90;37.97;;;8.90;90.60;;;;;;4992451;28;20057;-68
2021/03/23 09:39:14;;;;;;;59.78;36.97;;;9.10;90.50;;;;;;4981930;28;20018;-70
2021/03/23 09:41:40;;;;;;;57.80;35.40;;;9.20;90.40;;;;;;4994496;28;20049;-68
2021/03/23 09:44:05;;;;;;;70.90;38.05;;;9.30;90.20;;;;;;4993206;28;20164;-68
2021/03/23 09:46:34;;;;;;;61.45;36.35;;;9.30;90.40;;;;;;4992255;28;20121;-69
2021/03/23 09:49:17;;;;;;;63.15;36.15;;;9.30;90.30;;;;;;4993627;28;20038;-68
2021/03/23 09:51:57;;;;;;;58.22;35.78;;;9.30;90.10;;;;;;4992790;28;20030;-69
2021/03/23 09:54:29;;;;;;;56.22;35.65;;;9.30;90.40;;;;;;5012354;28;20105;-71
2021/03/23 09:56:58;;;;;;;55.30;34.60;;;9.40;90.20;;;;;;5013026;28;20026;-68
2021/03/23 09:59:41;;;;;;;56.83;35.55;;;9.50;90.10;;;;;;5013603;28;20452;-68
2021/03/23 10:02:31;;;;;;;59.53;36.67;;;9.60;90.00;;;;;;5014453;28;20033;-67
2021/03/23 10:05:14;;;;;;;55.58;34.03;;;9.60;89.60;;;;;;5012128;28;20129;-68
2021/03/23 10:07:43;;;;;;;55.85;34.38;;;9.60;90.00;;;;;;4994594;28;20525;-67
2021/03/23 10:10:10;;;;;;;49.33;32.55;;;9.60;89.60;;;;;;4993123;28;20356;-68
2021/03/23 10:12:36;;;;;;;53.92;34.00;;;9.60;89.40;;;;;;4992781;28;20022;-68
2021/03/23 10:15:21;;;;;;;56.75;34.38;;;9.70;89.50;;;;;;4994352;28;20501;-68
2021/03/23 10:17:46;;;;;;;47.55;32.65;;;9.70;89.40;;;;;;4993645;28;20045;-67
2021/03/23 10:20:16;;;;;;;46.85;31.65;;;9.80;89.20;;;;;;4993759;28;20382;-66
2021/03/23 10:22:52;;;;;;;47.70;32.85;;;9.80;88.60;;;;;;4994587;28;20097;-67
2021/03/23 10:25:19;;;;;;;47.13;32.05;;;9.90;88.50;;;;;;5009328;28;20022;-69
2021/03/23 10:27:44;;;;;;;44.05;30.30;;;10.00;88.30;;;;;;4993733;28;20026;-69
2021/03/23 10:30:16;;;;;;;45.50;31.65;;;10.10;87.90;;;;;;4993855;28;20165;-67
2021/03/23 10:32:52;;;;;;;45.90;29.20;;;10.20;87.50;;;;;;4993464;28;20026;-67
2021/03/23 10:35:22;;;;;;;46.83;30.75;;;10.20;87.70;;;;;;4993334;28;20027;-67
2021/03/23 10:37:48;;;;;;;50.70;33.13;;;10.30;87.70;;;;;;4993993;28;20450;-67
2021/03/23 10:40:37;;;;;;;49.08;32.95;;;10.30;86.90;;;;;;4992040;28;20117;-67
2021/03/23 10:43:03;;;;;;;47.67;32.03;;;10.20;86.80;;;;;;4992462;28;20038;-68
2021/03/23 10:45:41;;;;;;;48.63;33.80;;;10.20;86.90;;;;;;4992185;28;20160;-68
2021/03/23 10:48:18;;;;;;;48.28;32.80;;;10.20;86.90;;;;;;4990035;28;20107;-67
2021/03/23 10:50:46;;;;;;;59.95;35.80;;;10.30;87.00;;;;;;4992308;28;20023;-67
2021/03/23 10:53:14;;;;;;;45.42;32.05;;;10.30;86.70;;;;;;4996508;28;20318;-64
2021/03/23 10:55:44;;;;;;;51.63;35.53;;;10.30;86.60;;;;;;4993345;28;20478;-64
2021/03/23 10:58:26;;;;;;;46.25;34.15;;;10.10;87.40;;;;;;4993390;28;20042;-64
2021/03/23 11:01:10;;;;;;;48.20;32.90;;;10.20;87.50;;;;;;4993121;28;20021;-64
2021/03/23 11:03:40;;;;;;;53.75;33.38;;;10.20;87.00;;;;;;5004880;28;20074;-65
2021/03/23 11:06:05;;;;;;;53.42;35.22;;;10.20;87.00;;;;;;4984474;28;20061;-67
2021/03/23 11:08:31;;;;;;;50.20;35.03;;;10.30;87.40;;;;;;4991599;28;20070;-66
2021/03/23 11:10:59;;;;;;;54.97;34.33;;;10.40;87.10;;;;;;4993016;28;20054;-67
2021/03/23 11:13:25;;;;;;;51.45;34.67;;;10.40;86.30;;;;;;4991737;28;20109;-66
2021/03/23 11:15:54;;;;;;;57.65;37.53;;;10.30;86.40;;;;;;4992307;28;20176;-67
2021/03/23 11:18:30;;;;;;;52.42;35.58;;;10.40;86.50;;;;;;4991648;28;20022;-66
2021/03/23 11:21:00;;;;;;;55.17;35.67;;;10.50;86.00;;;;;;4991977;28;20027;-68
2021/03/23 11:23:40;;;;;;;51.45;35.13;;;10.70;85.50;;;;;;4992104;28;20038;-67
2021/03/23 11:26:09;;;;;;;54.40;34.55;;;10.70;84.80;;;;;;4993250;28;20418;-67
2021/03/23 11:28:35;;;;;;;54.05;34.10;;;10.60;85.10;;;;;;4990912;28;20034;-66
2021/03/23 11:31:02;;;;;;;52.67;36.03;;;10.70;84.80;;;;;;4993139;28;20112;-63
2021/03/23 11:33:29;;;;;;;50.15;32.97;;;10.80;84.70;;;;;;4991640;28;20057;-66
2021/03/23 11:35:55;;;;;;;50.03;34.45;;;10.90;83.60;;;;;;4990470;28;20022;-63
2021/03/23 11:38:22;;;;;;;51.80;34.97;;;10.90;83.70;;;;;;4992398;28;20371;-67
2021/03/23 11:40:49;;;;;;;50.88;33.35;;;10.90;83.70;;;;;;4993411;28;20023;-65
2021/03/23 11:43:27;;;;;;;54.17;34.67;;;10.90;83.70;;;;;;4992131;28;20089;-64
2021/03/23 11:45:55;;;;;;;49.53;32.63;;;10.90;83.70;;;;;;4993105;28;20544;-64
2021/03/23 11:48:22;;;;;;;53.08;34.92;;;11.00;83.90;;;;;;4992869;28;20085;-64
2021/03/23 11:50:50;;;;;;;51.05;35.60;;;11.00;84.10;;;;;;4992701;28;20023;-64
2021/03/23 11:53:17;;;;;;;51.70;35.28;;;11.10;83.80;;;;;;4992856;28;20534;-65
2021/03/23 11:55:45;;;;;;;48.40;33.33;;;11.20;83.60;;;;;;4993222;28;20442;-65
2021/03/23 11:58:12;;;;;;;49.65;34.53;;;11.10;83.10;;;;;;4992218;28;20053;-65
2021/03/23 12:00:38;;;;;;;52.75;34.80;;;11.00;83.30;;;;;;4992744;28;20390;-65
2021/03/23 12:03:06;;;;;;;50.60;34.88;;;11.00;83.40;;;;;;4992964;28;20038;-65
2021/03/23 12:05:35;;;;;;;54.08;36.25;;;11.10;83.20;;;;;;4990985;28;20474;-64
2021/03/23 12:08:13;;;;;;;49.55;34.60;;;11.10;83.10;;;;;;4991651;28;20022;-64
2021/03/23 12:10:41;;;;;;;53.83;35.83;;;11.10;82.80;;;;;;5007628;28;20387;-63
2021/03/23 12:13:24;;;;;;;53.22;34.97;;;11.00;82.90;;;;;;4991581;28;20030;-64
2021/03/23 12:15:59;;;;;;;53.67;35.45;;;10.90;83.40;;;;;;4993123;28;20061;-64
2021/03/23 12:18:26;;;;;;;54.15;35.72;;;11.00;83.50;;;;;;5007000;28;20029;-64
2021/03/23 12:20:58;;;;;;;52.35;37.03;;;11.00;83.60;;;;;;4996055;28;20431;-64
2021/03/23 12:23:25;;;;;;;50.13;35.88;;;11.00;83.20;;;;;;4996313;28;20030;-64
2021/03/23 12:25:53;;;;;;;57.55;36.33;;;11.10;83.20;;;;;;4995982;28;20073;-64
2021/03/23 12:28:18;;;;;;;48.55;34.92;;;11.10;83.10;;;;;;4996457;28;20081;-64
2021/03/23 12:30:44;;;;;;;53.92;34.70;;;11.20;82.90;;;;;;4996709;28;20023;-64
2021/03/23 12:33:10;;;;;;;50.58;34.05;;;11.30;82.40;;;;;;4995852;28;20081;-63
2021/03/23 12:35:35;;;;;;;48.88;34.28;;;11.30;81.80;;;;;;4996227;28;20030;-63
2021/03/23 12:38:04;;;;;;;47.95;33.20;;;11.30;82.00;;;;;;4996432;28;20121;-63
2021/03/23 12:40:30;;;;;;;49.72;35.45;;;11.30;82.10;;;;;;4995420;28;20030;-63
2021/03/23 12:42:56;;;;;;;48.03;34.35;;;11.30;82.00;;;;;;4996259;28;20026;-64
2021/03/23 12:45:32;;;;;;;51.00;35.47;;;11.30;82.20;;;;;;4996082;28;20030;-63
2021/03/23 12:47:58;;;;;;;52.40;35.33;;;11.30;82.50;;;;;;4996386;28;20037;-64
2021/03/23 12:50:23;;;;;;;52.38;35.47;;;11.50;82.50;;;;;;4996135;28;20057;-64
2021/03/23 12:52:51;;;;;;;54.45;34.13;;;11.50;82.10;;;;;;4994287;28;20479;-64
2021/03/23 12:55:26;;;;;;;45.65;33.75;;;11.40;82.20;;;;;;4995776;28;20041;-64
2021/03/23 12:57:55;;;;;;;53.90;34.40;;;11.30;82.50;;;;;;4996156;28;20069;-65
2021/03/23 13:00:26;;;;;;;54.80;35.67;;;11.30;82.80;;;;;;4995029;28;20553;-65
2021/03/23 13:02:53;;;;;;;52.90;35.92;;;11.30;82.90;;;;;;4996348;28;20042;-64